createdAt,value
2017-12-11T00:00:46.927Z,973.20
2017-12-11T00:01:46.897Z,973.21
2017-12-11T00:02:46.876Z,973.23
2017-12-11T00:03:46.850Z,973.23
2017-12-11T00:04:46.832Z,973.41
2017-12-11T00:05:46.799Z,973.36
2017-12-11T00:06:46.781Z,973.50
2017-12-11T00:07:46.760Z,973.58
2017-12-11T00:08:46.741Z,973.67
2017-12-11T00:09:46.711Z,973.67
2017-12-11T00:10:46.679Z,973.64
2017-12-11T00:11:46.658Z,973.68
2017-12-11T00:12:46.637Z,973.78
2017-12-11T00:13:46.610Z,973.80
2017-12-11T00:14:46.588Z,973.84
2017-12-11T00:15:46.570Z,973.94
2017-12-11T00:16:46.544Z,974.03
2017-12-11T00:17:46.519Z,973.97
2017-12-11T00:18:46.545Z,974.01
2017-12-11T00:19:46.481Z,974.01
2017-12-11T00:20:46.453Z,974.08
2017-12-11T00:21:46.431Z,974.12
2017-12-11T00:22:46.453Z,974.28
2017-12-11T00:23:46.382Z,974.15
2017-12-11T00:24:46.361Z,974.21
2017-12-11T00:25:46.332Z,974.28
2017-12-11T00:26:46.313Z,974.28
2017-12-11T00:27:46.332Z,974.34
2017-12-11T00:28:46.262Z,974.37
2017-12-11T00:29:46.287Z,974.48
2017-12-11T00:30:46.222Z,974.49
2017-12-11T00:31:46.196Z,974.62
2017-12-11T00:32:46.169Z,974.68
2017-12-11T00:33:46.141Z,974.69
2017-12-11T00:34:46.124Z,974.79
2017-12-11T00:35:46.097Z,974.78
2017-12-11T00:36:46.076Z,974.84
2017-12-11T00:37:46.058Z,974.81
2017-12-11T00:38:46.025Z,974.80
2017-12-11T00:39:46.001Z,974.82
2017-12-11T00:40:45.972Z,974.89
2017-12-11T00:41:45.950Z,974.85
2017-12-11T00:42:45.922Z,974.87
2017-12-11T00:43:45.899Z,974.92
2017-12-11T00:44:45.875Z,974.87
2017-12-11T00:45:45.849Z,974.86
2017-12-11T00:46:45.827Z,974.96
2017-12-11T00:47:45.804Z,974.92
2017-12-11T00:48:45.775Z,975.01
2017-12-11T00:49:45.752Z,975.07
2017-12-11T00:50:45.737Z,975.19
2017-12-11T00:51:45.756Z,974.97
2017-12-11T00:52:45.686Z,975.04
2017-12-11T00:53:45.661Z,975.00
2017-12-11T00:54:45.640Z,975.10
2017-12-11T00:55:45.653Z,975.18
2017-12-11T00:56:45.591Z,975.15
2017-12-11T00:57:45.666Z,975.19
2017-12-11T00:58:45.540Z,975.31
2017-12-11T00:59:45.609Z,975.37
2017-12-11T01:00:45.497Z,975.37
2017-12-11T01:01:45.481Z,975.46
2017-12-11T01:02:45.450Z,975.44
2017-12-11T01:03:45.434Z,975.52
2017-12-11T01:04:45.402Z,975.61
2017-12-11T01:05:45.383Z,975.67
2017-12-11T01:06:45.360Z,975.68
2017-12-11T01:07:45.330Z,975.71
2017-12-11T01:08:45.307Z,975.69
2017-12-11T01:09:45.290Z,975.68
2017-12-11T01:10:45.257Z,975.70
2017-12-11T01:11:45.284Z,975.75
2017-12-11T01:12:45.210Z,975.73
2017-12-11T01:13:45.188Z,975.86
2017-12-11T01:14:45.168Z,975.74
2017-12-11T01:15:45.147Z,975.92
2017-12-11T01:16:45.120Z,975.93
2017-12-11T01:17:45.092Z,975.99
2017-12-11T01:18:45.071Z,976.01
2017-12-11T01:19:45.050Z,976.12
2017-12-11T01:20:45.029Z,976.16
2017-12-11T01:21:44.998Z,976.25
2017-12-11T01:22:44.975Z,976.30
2017-12-11T01:23:44.952Z,976.28
2017-12-11T01:24:44.930Z,976.36
2017-12-11T01:25:44.915Z,976.37
2017-12-11T01:26:44.880Z,976.41
2017-12-11T01:27:44.859Z,976.45
2017-12-11T01:28:44.829Z,976.47
2017-12-11T01:29:44.805Z,976.66
2017-12-11T01:30:44.785Z,976.63
2017-12-11T01:31:44.758Z,976.67
2017-12-11T01:32:44.742Z,976.68
2017-12-11T01:33:44.714Z,976.69
2017-12-11T01:34:44.689Z,976.70
2017-12-11T01:35:44.664Z,976.77
2017-12-11T01:36:44.650Z,976.72
2017-12-11T01:37:44.621Z,976.80
2017-12-11T01:38:44.594Z,976.72
2017-12-11T01:39:44.570Z,976.78
2017-12-11T01:40:44.549Z,976.78
2017-12-11T01:41:44.523Z,976.81
2017-12-11T01:42:44.501Z,976.83
2017-12-11T01:43:44.480Z,976.86
2017-12-11T01:44:44.455Z,976.89
2017-12-11T01:45:44.430Z,976.81
2017-12-11T01:46:44.408Z,976.90
2017-12-11T01:47:44.388Z,976.89
2017-12-11T01:48:44.370Z,976.90
2017-12-11T01:49:44.340Z,976.91
2017-12-11T01:50:44.312Z,976.92
2017-12-11T01:51:44.289Z,976.96
2017-12-11T01:52:44.274Z,976.96
2017-12-11T01:53:44.240Z,976.96
2017-12-11T01:54:44.218Z,977.04
2017-12-11T01:55:44.197Z,976.95
2017-12-11T01:56:44.171Z,977.00
2017-12-11T01:57:44.147Z,976.97
2017-12-11T01:58:44.120Z,977.01
2017-12-11T01:59:44.098Z,977.07
2017-12-11T02:00:44.080Z,977.00
2017-12-11T02:01:44.052Z,977.03
2017-12-11T02:02:44.027Z,976.99
2017-12-11T02:03:44.010Z,976.97
2017-12-11T02:04:43.989Z,976.95
2017-12-11T02:05:43.959Z,976.94
2017-12-11T02:06:43.939Z,976.92
2017-12-11T02:07:43.910Z,976.86
2017-12-11T02:08:43.891Z,976.76
2017-12-11T02:09:43.869Z,976.68
2017-12-11T02:10:43.840Z,976.71
2017-12-11T02:11:43.820Z,976.72
2017-12-11T02:12:43.799Z,976.73
2017-12-11T02:13:43.769Z,976.69
2017-12-11T02:14:43.753Z,976.76
2017-12-11T02:15:43.728Z,976.76
2017-12-11T02:16:43.702Z,976.76
2017-12-11T02:17:43.689Z,976.85
2017-12-11T02:18:43.656Z,976.84
2017-12-11T02:19:43.629Z,976.86
2017-12-11T02:20:43.617Z,976.84
2017-12-11T02:21:43.584Z,976.83
2017-12-11T02:22:43.561Z,976.86
2017-12-11T02:23:43.538Z,976.83
2017-12-11T02:24:43.521Z,976.84
2017-12-11T02:25:43.490Z,976.80
2017-12-11T02:26:43.469Z,976.74
2017-12-11T02:27:43.447Z,976.76
2017-12-11T02:28:43.468Z,976.80
2017-12-11T02:29:43.396Z,976.76
2017-12-11T02:30:43.428Z,976.76
2017-12-11T02:31:43.348Z,976.70
2017-12-11T02:32:43.381Z,976.70
2017-12-11T02:33:43.302Z,976.78
2017-12-11T02:34:43.280Z,976.79
2017-12-11T02:35:43.260Z,976.83
2017-12-11T02:36:43.240Z,976.87
2017-12-11T02:37:43.212Z,976.90
2017-12-11T02:38:43.187Z,976.94
2017-12-11T02:39:43.168Z,976.98
2017-12-11T02:40:43.147Z,977.03
2017-12-11T02:41:43.120Z,977.07
2017-12-11T02:42:43.098Z,977.14
2017-12-11T02:43:43.085Z,977.22
2017-12-11T02:44:43.047Z,977.26
2017-12-11T02:45:43.031Z,977.29
2017-12-11T02:46:43.009Z,977.28
2017-12-11T02:47:42.982Z,977.27
2017-12-11T02:48:42.965Z,977.28
2017-12-11T02:49:42.931Z,977.29
2017-12-11T02:50:42.911Z,977.27
2017-12-11T02:51:42.890Z,977.34
2017-12-11T02:52:42.869Z,977.38
2017-12-11T02:53:42.840Z,977.45
2017-12-11T02:54:42.828Z,977.52
2017-12-11T02:55:42.792Z,977.54
2017-12-11T02:56:42.771Z,977.58
2017-12-11T02:57:42.749Z,977.61
2017-12-11T02:58:42.729Z,977.61
2017-12-11T02:59:42.702Z,977.68
2017-12-11T03:00:42.681Z,977.75
2017-12-11T03:01:42.661Z,977.83
2017-12-11T03:02:42.632Z,977.87
2017-12-11T03:03:42.617Z,977.96
2017-12-11T03:04:42.591Z,977.91
2017-12-11T03:05:42.571Z,977.98
2017-12-11T03:06:42.542Z,978.05
2017-12-11T03:07:42.520Z,978.07
2017-12-11T03:08:42.499Z,978.16
2017-12-11T03:09:42.467Z,978.25
2017-12-11T03:10:42.444Z,978.26
2017-12-11T03:11:42.429Z,978.35
2017-12-11T03:12:42.400Z,978.33
2017-12-11T03:13:42.380Z,978.36
2017-12-11T03:14:42.349Z,978.35
2017-12-11T03:15:42.332Z,978.37
2017-12-11T03:16:42.311Z,978.40
2017-12-11T03:17:42.280Z,978.46
2017-12-11T03:18:42.258Z,978.46
2017-12-11T03:19:42.241Z,978.54
2017-12-11T03:20:42.210Z,978.54
2017-12-11T03:21:42.187Z,978.59
2017-12-11T03:22:42.163Z,978.62
2017-12-11T03:23:42.140Z,978.65
2017-12-11T03:24:42.117Z,978.68
2017-12-11T03:25:42.094Z,978.72
2017-12-11T03:26:42.071Z,978.72
2017-12-11T03:27:42.052Z,978.73
2017-12-11T03:28:42.030Z,978.78
2017-12-11T03:29:42.008Z,978.86
2017-12-11T03:30:41.979Z,978.86
2017-12-11T03:31:41.962Z,978.90
2017-12-11T03:32:41.929Z,978.96
2017-12-11T03:33:41.919Z,979.01
2017-12-11T03:34:41.889Z,979.03
2017-12-11T03:35:41.860Z,979.05
2017-12-11T03:36:41.843Z,979.11
2017-12-11T03:37:41.812Z,979.17
2017-12-11T03:38:41.799Z,979.23
2017-12-11T03:39:41.772Z,979.29
2017-12-11T03:40:41.744Z,979.27
2017-12-11T03:41:41.721Z,979.25
2017-12-11T03:42:41.698Z,979.18
2017-12-11T03:43:41.684Z,979.25
2017-12-11T03:44:41.649Z,979.20
2017-12-11T03:45:41.623Z,979.12
2017-12-11T03:46:41.601Z,979.05
2017-12-11T03:47:41.579Z,978.99
2017-12-11T03:48:41.561Z,978.96
2017-12-11T03:49:41.529Z,978.98
2017-12-11T03:50:41.516Z,978.93
2017-12-11T03:51:41.486Z,978.98
2017-12-11T03:52:41.464Z,978.93
2017-12-11T03:53:41.438Z,978.91
2017-12-11T03:54:41.421Z,978.89
2017-12-11T03:55:41.390Z,978.85
2017-12-11T03:56:41.370Z,978.85
2017-12-11T03:57:41.343Z,978.84
2017-12-11T03:58:41.325Z,978.82
2017-12-11T03:59:41.297Z,978.69
2017-12-11T04:00:41.295Z,978.71
2017-12-11T04:01:41.250Z,978.64
2017-12-11T04:02:41.230Z,978.61
2017-12-11T04:03:41.211Z,978.55
2017-12-11T04:04:41.190Z,978.51
2017-12-11T04:05:41.163Z,978.47
2017-12-11T04:06:41.132Z,978.42
2017-12-11T04:07:41.110Z,978.37
2017-12-11T04:08:41.092Z,978.43
2017-12-11T04:09:41.063Z,978.45
2017-12-11T04:10:41.042Z,978.45
2017-12-11T04:11:41.016Z,978.44
2017-12-11T04:12:40.996Z,978.40
2017-12-11T04:13:40.971Z,978.36
2017-12-11T04:14:40.947Z,978.32
2017-12-11T04:15:40.924Z,978.29
2017-12-11T04:16:40.901Z,978.30
2017-12-11T04:17:40.878Z,978.32
2017-12-11T04:18:40.855Z,978.34
2017-12-11T04:19:40.839Z,978.38
2017-12-11T04:20:40.807Z,978.38
2017-12-11T04:21:40.784Z,978.39
2017-12-11T04:22:40.762Z,978.43
2017-12-11T04:23:40.744Z,978.48
2017-12-11T04:24:40.746Z,978.53
2017-12-11T04:25:40.697Z,978.56
2017-12-11T04:26:40.681Z,978.58
2017-12-11T04:27:40.649Z,978.60
2017-12-11T04:28:40.621Z,978.61
2017-12-11T04:29:40.598Z,978.63
2017-12-11T04:30:40.579Z,978.63
2017-12-11T04:31:40.553Z,978.64
2017-12-11T04:32:40.531Z,978.55
2017-12-11T04:33:40.572Z,978.56
2017-12-11T04:34:40.482Z,978.54
2017-12-11T04:35:40.563Z,978.51
2017-12-11T04:36:40.435Z,978.51
2017-12-11T04:37:40.457Z,978.51
2017-12-11T04:38:40.387Z,978.48
2017-12-11T04:39:40.373Z,978.50
2017-12-11T04:40:40.350Z,978.56
2017-12-11T04:41:40.420Z,978.55
2017-12-11T04:42:40.299Z,978.59
2017-12-11T04:43:40.326Z,978.64
2017-12-11T04:44:40.252Z,978.69
2017-12-11T04:45:40.263Z,978.71
2017-12-11T04:46:40.211Z,978.75
2017-12-11T04:47:40.191Z,978.81
2017-12-11T04:48:40.159Z,978.82
2017-12-11T04:49:40.144Z,978.86
2017-12-11T04:50:40.110Z,978.79
2017-12-11T04:51:40.142Z,978.77
2017-12-11T04:52:40.070Z,978.71
2017-12-11T04:53:40.051Z,978.62
2017-12-11T04:54:40.018Z,978.55
2017-12-11T04:55:40.000Z,978.52
2017-12-11T04:56:39.977Z,978.50
2017-12-11T04:57:39.950Z,978.47
2017-12-11T04:58:39.931Z,978.48
2017-12-11T04:59:39.914Z,978.51
2017-12-11T05:00:39.879Z,978.49
2017-12-11T05:01:39.864Z,978.46
2017-12-11T05:02:39.833Z,978.46
2017-12-11T05:03:39.818Z,978.48
2017-12-11T05:04:39.800Z,978.51
2017-12-11T05:05:39.775Z,978.52
2017-12-11T05:06:39.739Z,978.54
2017-12-11T05:07:39.720Z,978.51
2017-12-11T05:08:39.695Z,978.56
2017-12-11T05:09:39.681Z,978.56
2017-12-11T05:10:39.649Z,978.53
2017-12-11T05:11:39.631Z,978.56
2017-12-11T05:12:39.606Z,978.50
2017-12-11T05:13:39.582Z,978.51
2017-12-11T05:14:39.558Z,978.47
2017-12-11T05:15:39.535Z,978.47
2017-12-11T05:16:39.515Z,978.43
2017-12-11T05:17:39.491Z,978.44
2017-12-11T05:18:39.469Z,978.48
2017-12-11T05:19:39.447Z,978.46
2017-12-11T05:20:39.417Z,978.47
2017-12-11T05:21:39.396Z,978.43
2017-12-11T05:22:39.371Z,978.44
2017-12-11T05:23:39.351Z,978.42
2017-12-11T05:24:39.324Z,978.43
2017-12-11T05:25:39.300Z,978.44
2017-12-11T05:26:39.280Z,978.49
2017-12-11T05:27:39.270Z,978.47
2017-12-11T05:28:39.240Z,978.47
2017-12-11T05:29:39.218Z,978.42
2017-12-11T05:30:39.186Z,978.42
2017-12-11T05:31:39.165Z,978.42
2017-12-11T05:32:39.141Z,978.40
2017-12-11T05:33:39.118Z,978.35
2017-12-11T05:34:39.093Z,978.36
2017-12-11T05:35:39.070Z,978.34
2017-12-11T05:36:39.048Z,978.36
2017-12-11T05:37:39.030Z,978.34
2017-12-11T05:38:38.999Z,978.36
2017-12-11T05:39:38.978Z,978.41
2017-12-11T05:40:38.957Z,978.41
2017-12-11T05:41:38.930Z,978.50
2017-12-11T05:42:38.910Z,978.44
2017-12-11T05:43:38.884Z,978.46
2017-12-11T05:44:38.861Z,978.45
2017-12-11T05:45:38.837Z,978.44
2017-12-11T05:46:38.820Z,978.44
2017-12-11T05:47:38.802Z,978.48
2017-12-11T05:48:38.776Z,978.48
2017-12-11T05:49:38.746Z,978.48
2017-12-11T05:50:38.727Z,978.47
2017-12-11T05:51:38.700Z,978.49
2017-12-11T05:52:38.719Z,978.39
2017-12-11T05:53:38.660Z,978.36
2017-12-11T05:54:38.629Z,978.30
2017-12-11T05:55:38.612Z,978.24
2017-12-11T05:56:38.603Z,978.20
2017-12-11T05:57:38.564Z,978.22
2017-12-11T05:58:38.540Z,978.25
2017-12-11T05:59:38.520Z,978.20
2017-12-11T06:00:38.495Z,978.23
2017-12-11T06:01:38.470Z,978.16
2017-12-11T06:02:38.451Z,978.07
2017-12-11T06:03:38.432Z,978.04
2017-12-11T06:04:38.402Z,978.01
2017-12-11T06:05:38.450Z,977.99
2017-12-11T06:06:38.359Z,978.01
2017-12-11T06:07:38.342Z,978.00
2017-12-11T06:08:38.312Z,977.97
2017-12-11T06:09:38.293Z,977.91
2017-12-11T06:10:38.272Z,977.84
2017-12-11T06:11:38.239Z,977.79
2017-12-11T06:12:38.223Z,977.72
2017-12-11T06:13:38.196Z,977.73
2017-12-11T06:14:38.172Z,977.70
2017-12-11T06:15:38.147Z,977.69
2017-12-11T06:16:38.125Z,977.69
2017-12-11T06:17:38.107Z,977.68
2017-12-11T06:18:38.080Z,977.66
2017-12-11T06:19:38.064Z,977.60
2017-12-11T06:20:38.096Z,977.57
2017-12-11T06:21:38.013Z,977.52
2017-12-11T06:22:37.987Z,977.50
2017-12-11T06:23:37.960Z,977.54
2017-12-11T06:24:37.936Z,977.57
2017-12-11T06:25:37.932Z,977.67
2017-12-11T06:26:37.891Z,977.70
2017-12-11T06:27:37.870Z,977.70
2017-12-11T06:28:37.844Z,977.65
2017-12-11T06:29:37.821Z,977.65
2017-12-11T06:30:37.801Z,977.60
2017-12-11T06:31:37.776Z,977.59
2017-12-11T06:32:37.751Z,977.66
2017-12-11T06:33:37.736Z,977.64
2017-12-11T06:34:37.705Z,977.61
2017-12-11T06:35:37.679Z,977.59
2017-12-11T06:36:37.658Z,977.51
2017-12-11T06:37:37.640Z,977.53
2017-12-11T06:38:37.610Z,977.47
2017-12-11T06:39:37.592Z,977.47
2017-12-11T06:40:37.571Z,977.47
2017-12-11T06:41:37.540Z,977.48
2017-12-11T06:42:37.522Z,977.48
2017-12-11T06:43:37.501Z,977.47
2017-12-11T06:44:37.469Z,977.47
2017-12-11T06:45:37.451Z,977.51
2017-12-11T06:46:37.427Z,977.53
2017-12-11T06:47:37.400Z,977.56
2017-12-11T06:48:37.377Z,977.59
2017-12-11T06:49:37.353Z,977.69
2017-12-11T06:50:37.334Z,977.74
2017-12-11T06:51:37.311Z,977.83
2017-12-11T06:52:37.291Z,977.94
2017-12-11T06:53:37.261Z,977.96
2017-12-11T06:54:37.241Z,978.01
2017-12-11T06:55:37.225Z,978.05
2017-12-11T06:56:37.192Z,978.08
2017-12-11T06:57:37.168Z,978.10
2017-12-11T06:58:37.144Z,978.09
2017-12-11T06:59:37.122Z,978.10
2017-12-11T07:00:37.097Z,978.05
2017-12-11T07:01:37.070Z,978.10
2017-12-11T07:02:37.131Z,978.08
2017-12-11T07:03:37.040Z,978.06
2017-12-11T07:04:37.006Z,978.08
2017-12-11T07:05:36.977Z,978.09
2017-12-11T07:06:36.955Z,978.08
2017-12-11T07:07:36.945Z,978.11
2017-12-11T07:08:36.915Z,978.13
2017-12-11T07:09:36.882Z,978.13
2017-12-11T07:10:36.860Z,978.10
2017-12-11T07:11:36.839Z,978.11
2017-12-11T07:12:36.811Z,978.13
2017-12-11T07:13:36.790Z,978.11
2017-12-11T07:14:36.770Z,978.07
2017-12-11T07:15:36.740Z,978.05
2017-12-11T07:16:36.721Z,978.05
2017-12-11T07:17:36.696Z,978.09
2017-12-11T07:18:36.669Z,978.12
2017-12-11T07:19:36.650Z,978.18
2017-12-11T07:20:36.621Z,978.20
2017-12-11T07:21:36.602Z,978.25
2017-12-11T07:22:36.577Z,978.30
2017-12-11T07:23:36.552Z,978.33
2017-12-11T07:24:36.527Z,978.39
2017-12-11T07:25:36.503Z,978.43
2017-12-11T07:26:36.482Z,978.51
2017-12-11T07:27:36.458Z,978.57
2017-12-11T07:28:36.434Z,978.61
2017-12-11T07:29:36.411Z,978.68
2017-12-11T07:30:36.388Z,978.67
2017-12-11T07:31:36.372Z,978.70
2017-12-11T07:32:36.342Z,978.68
2017-12-11T07:33:36.316Z,978.52
2017-12-11T07:34:36.293Z,978.51
2017-12-11T07:35:36.270Z,978.43
2017-12-11T07:36:36.243Z,978.37
2017-12-11T07:37:36.221Z,978.34
2017-12-11T07:38:36.201Z,978.30
2017-12-11T07:39:36.178Z,978.32
2017-12-11T07:40:36.149Z,978.29
2017-12-11T07:41:36.127Z,978.29
2017-12-11T07:42:36.116Z,978.30
2017-12-11T07:43:36.084Z,978.27
2017-12-11T07:44:36.057Z,978.22
2017-12-11T07:45:36.032Z,978.18
2017-12-11T07:46:36.012Z,978.21
2017-12-11T07:47:35.990Z,978.22
2017-12-11T07:48:35.960Z,978.29
2017-12-11T07:49:35.949Z,978.31
2017-12-11T07:50:35.914Z,978.27
2017-12-11T07:51:35.891Z,978.18
2017-12-11T07:52:35.869Z,978.22
2017-12-11T07:53:35.844Z,978.25
2017-12-11T07:54:35.818Z,978.30
2017-12-11T07:55:35.795Z,978.34
2017-12-11T07:56:35.772Z,978.34
2017-12-11T07:57:35.753Z,978.26
2017-12-11T07:58:35.724Z,978.23
2017-12-11T07:59:35.699Z,978.22
2017-12-11T08:00:35.675Z,978.19
2017-12-11T08:01:35.654Z,978.17
2017-12-11T08:02:35.631Z,978.15
2017-12-11T08:03:35.606Z,978.14
2017-12-11T08:04:35.590Z,978.15
2017-12-11T08:05:35.558Z,978.12
2017-12-11T08:06:35.538Z,978.08
2017-12-11T08:07:35.515Z,977.99
2017-12-11T08:08:35.487Z,977.98
2017-12-11T08:09:35.463Z,978.00
2017-12-11T08:10:35.441Z,977.98
2017-12-11T08:11:35.502Z,978.00
2017-12-11T08:12:35.400Z,978.01
2017-12-11T08:13:35.372Z,978.02
2017-12-11T08:14:35.351Z,978.02
2017-12-11T08:15:35.327Z,978.03
2017-12-11T08:16:35.298Z,978.04
2017-12-11T08:17:35.334Z,978.01
2017-12-11T08:18:35.250Z,977.99
2017-12-11T08:19:35.229Z,977.99
2017-12-11T08:20:35.205Z,978.05
2017-12-11T08:21:35.242Z,978.02
2017-12-11T08:22:35.158Z,978.05
2017-12-11T08:23:35.236Z,978.05
2017-12-11T08:24:35.112Z,978.08
2017-12-11T08:25:35.149Z,978.18
2017-12-11T08:26:35.061Z,978.20
2017-12-11T08:27:35.137Z,978.26
2017-12-11T08:28:35.022Z,978.23
2017-12-11T08:29:35.039Z,978.23
2017-12-11T08:30:34.970Z,978.20
2017-12-11T08:31:35.042Z,978.14
2017-12-11T08:32:34.921Z,978.08
2017-12-11T08:33:34.966Z,978.03
2017-12-11T08:34:34.883Z,978.01
2017-12-11T08:35:34.849Z,978.01
2017-12-11T08:36:34.834Z,978.09
2017-12-11T08:37:34.813Z,978.09
2017-12-11T08:38:34.785Z,978.12
2017-12-11T08:39:34.761Z,978.12
2017-12-11T08:40:34.742Z,978.10
2017-12-11T08:41:34.710Z,978.13
2017-12-11T08:42:34.683Z,978.15
2017-12-11T08:43:34.663Z,978.18
2017-12-11T08:44:34.644Z,978.15
2017-12-11T08:45:34.622Z,978.09
2017-12-11T08:46:34.593Z,978.14
2017-12-11T08:47:34.568Z,978.15
2017-12-11T08:48:34.542Z,978.18
2017-12-11T08:49:34.523Z,978.15
2017-12-11T08:50:34.493Z,978.10
2017-12-11T08:51:34.470Z,978.04
2017-12-11T08:52:34.446Z,978.07
2017-12-11T08:53:34.423Z,978.09
2017-12-11T08:54:34.399Z,978.09
2017-12-11T08:55:34.384Z,978.02
2017-12-11T08:56:34.352Z,977.97
2017-12-11T08:57:34.327Z,977.97
2017-12-11T08:58:34.303Z,977.93
2017-12-11T08:59:34.282Z,977.93
2017-12-11T09:00:34.263Z,977.90
2017-12-11T09:01:34.234Z,977.98
2017-12-11T09:02:34.210Z,977.96
2017-12-11T09:03:34.189Z,978.02
2017-12-11T09:04:34.166Z,978.09
2017-12-11T09:05:34.140Z,978.08
2017-12-11T09:06:34.116Z,978.12
2017-12-11T09:07:34.092Z,978.13
2017-12-11T09:08:34.082Z,978.10
2017-12-11T09:09:34.049Z,978.08
2017-12-11T09:10:34.024Z,978.09
2017-12-11T09:11:33.998Z,978.12
2017-12-11T09:12:33.972Z,978.11
2017-12-11T09:13:33.958Z,978.11
2017-12-11T09:14:33.923Z,978.10
2017-12-11T09:15:33.906Z,978.08
2017-12-11T09:16:33.888Z,978.08
2017-12-11T09:17:33.854Z,978.05
2017-12-11T09:18:33.840Z,978.06
2017-12-11T09:19:33.807Z,978.07
2017-12-11T09:20:33.782Z,978.06
2017-12-11T09:21:33.761Z,978.07
2017-12-11T09:22:33.742Z,978.04
2017-12-11T09:23:33.712Z,978.02
2017-12-11T09:24:33.694Z,978.02
2017-12-11T09:25:33.664Z,978.00
2017-12-11T09:26:33.642Z,977.92
2017-12-11T09:27:33.620Z,977.88
2017-12-11T09:28:33.596Z,977.84
2017-12-11T09:29:33.574Z,977.88
2017-12-11T09:30:33.543Z,977.88
2017-12-11T09:31:33.523Z,977.93
2017-12-11T09:32:33.506Z,977.93
2017-12-11T09:33:33.479Z,977.97
2017-12-11T09:34:33.452Z,977.94
2017-12-11T09:35:33.433Z,977.91
2017-12-11T09:36:33.402Z,977.84
2017-12-11T09:37:33.386Z,977.73
2017-12-11T09:38:33.424Z,977.73
2017-12-11T09:39:33.333Z,977.72
2017-12-11T09:40:33.308Z,977.71
2017-12-11T09:41:33.286Z,977.69
2017-12-11T09:42:33.259Z,977.72
2017-12-11T09:43:33.240Z,977.75
2017-12-11T09:44:33.214Z,977.73
2017-12-11T09:45:33.197Z,977.77
2017-12-11T09:46:33.175Z,977.73
2017-12-11T09:47:33.142Z,977.76
2017-12-11T09:48:33.116Z,977.73
2017-12-11T09:49:33.093Z,977.79
2017-12-11T09:50:33.072Z,977.84
2017-12-11T09:51:33.053Z,977.88
2017-12-11T09:52:33.023Z,977.89
2017-12-11T09:53:33.001Z,977.81
2017-12-11T09:54:32.977Z,977.64
2017-12-11T09:55:32.953Z,977.54
2017-12-11T09:56:32.926Z,977.50
2017-12-11T09:57:32.904Z,977.58
2017-12-11T09:58:32.881Z,977.70
2017-12-11T09:59:32.861Z,977.69
2017-12-11T10:00:32.830Z,977.70
2017-12-11T10:01:32.808Z,977.71
2017-12-11T10:02:32.793Z,977.64
2017-12-11T10:03:32.762Z,977.55
2017-12-11T10:04:32.740Z,977.46
2017-12-11T10:05:32.712Z,977.42
2017-12-11T10:06:32.692Z,977.49
2017-12-11T10:07:32.671Z,977.52
2017-12-11T10:08:32.641Z,977.54
2017-12-11T10:09:32.623Z,977.48
2017-12-11T10:10:32.601Z,977.41
2017-12-11T10:11:32.571Z,977.43
2017-12-11T10:12:32.553Z,977.55
2017-12-11T10:13:32.527Z,977.70
2017-12-11T10:14:32.499Z,977.71
2017-12-11T10:15:32.480Z,977.63
2017-12-11T10:16:32.453Z,977.64
2017-12-11T10:17:32.432Z,977.57
2017-12-11T10:18:32.404Z,977.53
2017-12-11T10:19:32.382Z,977.50
2017-12-11T10:20:32.361Z,977.40
2017-12-11T10:21:32.341Z,977.31
2017-12-11T10:22:32.311Z,977.34
2017-12-11T10:23:32.285Z,977.22
2017-12-11T10:24:32.261Z,977.13
2017-12-11T10:25:32.240Z,977.05
2017-12-11T10:26:32.222Z,977.08
2017-12-11T10:27:32.189Z,976.97
2017-12-11T10:28:32.206Z,976.96
2017-12-11T10:29:32.154Z,976.87
2017-12-11T10:30:32.120Z,976.81
2017-12-11T10:31:32.100Z,976.72
2017-12-11T10:32:32.091Z,976.73
2017-12-11T10:33:32.047Z,976.85
2017-12-11T10:34:32.031Z,976.91
2017-12-11T10:35:32.010Z,976.92
2017-12-11T10:36:31.978Z,976.77
2017-12-11T10:37:31.960Z,976.63
2017-12-11T10:38:31.930Z,976.62
2017-12-11T10:39:31.911Z,976.63
2017-12-11T10:40:31.876Z,976.65
2017-12-11T10:41:31.863Z,976.61
2017-12-11T10:42:31.831Z,976.50
2017-12-11T10:43:31.810Z,976.45
2017-12-11T10:44:31.781Z,976.46
2017-12-11T10:45:31.758Z,976.30
2017-12-11T10:46:31.739Z,976.26
2017-12-11T10:47:31.719Z,976.21
2017-12-11T10:48:31.686Z,976.23
2017-12-11T10:49:31.666Z,976.29
2017-12-11T10:50:31.640Z,976.27
2017-12-11T10:51:31.621Z,976.34
2017-12-11T10:52:31.600Z,976.30
2017-12-11T10:53:31.566Z,976.27
2017-12-11T10:54:31.540Z,976.24
2017-12-11T10:55:31.516Z,976.30
2017-12-11T10:56:31.489Z,976.32
2017-12-11T10:57:31.468Z,976.29
2017-12-11T10:58:31.445Z,976.21
2017-12-11T10:59:31.419Z,976.25
2017-12-11T11:00:31.400Z,976.26
2017-12-11T11:01:31.371Z,976.25
2017-12-11T11:02:31.359Z,976.14
2017-12-11T11:03:31.325Z,976.00
2017-12-11T11:04:31.304Z,976.11
2017-12-11T11:05:31.278Z,976.18
2017-12-11T11:06:31.259Z,976.21
2017-12-11T11:07:31.232Z,976.20
2017-12-11T11:08:31.205Z,976.15
2017-12-11T11:09:31.180Z,976.02
2017-12-11T11:10:31.154Z,975.93
2017-12-11T11:11:31.132Z,975.89
2017-12-11T11:12:31.110Z,975.89
2017-12-11T11:13:31.086Z,975.91
2017-12-11T11:14:31.063Z,975.96
2017-12-11T11:15:31.037Z,975.95
2017-12-11T11:16:31.014Z,975.94
2017-12-11T11:17:30.992Z,975.96
2017-12-11T11:18:30.969Z,975.94
2017-12-11T11:19:30.944Z,975.86
2017-12-11T11:20:30.916Z,975.83
2017-12-11T11:21:30.891Z,975.82
2017-12-11T11:22:30.870Z,975.80
2017-12-11T11:23:30.845Z,975.71
2017-12-11T11:24:30.818Z,975.65
2017-12-11T11:25:30.800Z,975.57
2017-12-11T11:26:30.771Z,975.54
2017-12-11T11:27:30.750Z,975.49
2017-12-11T11:28:30.724Z,975.39
2017-12-11T11:29:30.697Z,975.31
2017-12-11T11:30:30.672Z,975.28
2017-12-11T11:31:30.651Z,975.38
2017-12-11T11:32:30.624Z,975.47
2017-12-11T11:33:30.602Z,975.46
2017-12-11T11:34:30.577Z,975.32
2017-12-11T11:35:30.602Z,975.28
2017-12-11T11:36:30.527Z,975.22
2017-12-11T11:37:30.501Z,975.18
2017-12-11T11:38:30.480Z,975.20
2017-12-11T11:39:30.457Z,975.24
2017-12-11T11:40:30.439Z,975.16
2017-12-11T11:41:30.507Z,975.12
2017-12-11T11:42:30.382Z,975.04
2017-12-11T11:43:30.359Z,974.95
2017-12-11T11:44:30.335Z,974.94
2017-12-11T11:45:30.360Z,974.92
2017-12-11T11:46:30.292Z,974.85
2017-12-11T11:47:30.266Z,974.78
2017-12-11T11:48:30.238Z,974.72
2017-12-11T11:49:30.214Z,974.72
2017-12-11T11:50:30.189Z,974.70
2017-12-11T11:51:30.271Z,974.71
2017-12-11T11:52:30.173Z,974.77
2017-12-11T11:53:30.219Z,974.71
2017-12-11T11:54:30.092Z,974.66
2017-12-11T11:55:30.073Z,974.58
2017-12-11T11:56:30.046Z,974.52
2017-12-11T11:57:30.172Z,974.51
2017-12-11T11:58:30.001Z,974.52
2017-12-11T11:59:29.980Z,974.48
2017-12-11T12:00:29.953Z,974.34
2017-12-11T12:01:29.931Z,974.28
2017-12-11T12:02:29.903Z,974.29
2017-12-11T12:03:29.876Z,974.36
2017-12-11T12:04:29.851Z,974.29
2017-12-11T12:05:29.835Z,974.26
2017-12-11T12:06:29.800Z,974.17
2017-12-11T12:07:29.787Z,974.16
2017-12-11T12:08:29.754Z,974.20
2017-12-11T12:09:29.872Z,974.22
2017-12-11T12:10:29.706Z,974.19
2017-12-11T12:11:29.755Z,974.14
2017-12-11T12:12:29.660Z,974.06
2017-12-11T12:13:29.630Z,974.15
2017-12-11T12:14:29.611Z,974.07
2017-12-11T12:15:29.587Z,974.03
2017-12-11T12:16:29.561Z,973.97
2017-12-11T12:17:29.540Z,973.96
2017-12-11T12:18:29.513Z,973.93
2017-12-11T12:19:29.491Z,973.93
2017-12-11T12:20:29.470Z,973.96
2017-12-11T12:21:29.439Z,974.01
2017-12-11T12:22:29.423Z,973.99
2017-12-11T12:23:29.390Z,973.98
2017-12-11T12:24:29.373Z,973.90
2017-12-11T12:25:29.345Z,973.83
2017-12-11T12:26:29.321Z,973.80
2017-12-11T12:27:29.295Z,973.85
2017-12-11T12:28:29.272Z,973.87